createdAt,value
2023-05-14T00:00:28.836Z,1.60
2023-05-14T00:02:55.492Z,1.63
2023-05-14T00:05:22.731Z,1.43
2023-05-14T00:07:49.234Z,1.70
2023-05-14T00:10:15.697Z,1.50
2023-05-14T00:12:42.152Z,1.70
2023-05-14T00:15:08.986Z,1.60
2023-05-14T00:17:37.407Z,1.80
2023-05-14T00:20:07.198Z,1.87
2023-05-14T00:22:34.466Z,1.50
2023-05-14T00:25:00.977Z,1.77
2023-05-14T00:27:27.453Z,1.67
2023-05-14T00:29:53.944Z,1.70
2023-05-14T00:32:20.660Z,1.77
2023-05-14T00:34:47.229Z,1.53
2023-05-14T00:37:13.715Z,1.70
2023-05-14T00:39:40.265Z,1.87
2023-05-14T00:42:07.024Z,1.60
2023-05-14T00:44:33.905Z,1.57
2023-05-14T00:47:00.680Z,1.60
2023-05-14T00:49:28.586Z,1.50
2023-05-14T00:51:58.831Z,1.70
2023-05-14T00:54:25.748Z,2.00
2023-05-14T00:56:52.974Z,1.70
2023-05-14T00:59:19.493Z,1.70
2023-05-14T01:01:46.406Z,1.47
2023-05-14T01:04:13.207Z,1.73
2023-05-14T01:06:54.516Z,1.80
2023-05-14T01:09:39.139Z,1.70
2023-05-14T01:12:13.378Z,1.73
2023-05-14T01:15:06.917Z,1.60
2023-05-14T01:17:41.241Z,1.80
2023-05-14T01:20:09.030Z,1.70
2023-05-14T01:22:35.466Z,1.60
2023-05-14T01:25:01.985Z,1.90
2023-05-14T01:27:57.603Z,1.63
2023-05-14T01:30:39.563Z,1.57
2023-05-14T01:33:09.995Z,1.60
2023-05-14T01:35:36.905Z,1.83
2023-05-14T01:38:13.549Z,1.60
2023-05-14T01:40:41.160Z,1.63
2023-05-14T01:43:08.649Z,1.67
2023-05-14T01:45:36.582Z,1.73
2023-05-14T01:48:04.829Z,1.80
2023-05-14T01:50:31.310Z,1.70
2023-05-14T01:52:57.845Z,1.80
2023-05-14T01:55:25.462Z,1.53
2023-05-14T01:57:52.698Z,1.57
2023-05-14T02:00:20.427Z,1.50
2023-05-14T02:02:46.995Z,1.77
2023-05-14T02:05:13.908Z,1.60
2023-05-14T02:07:40.441Z,2.00
2023-05-14T02:10:09.352Z,1.63
2023-05-14T02:12:35.805Z,1.50
2023-05-14T02:15:03.865Z,1.97
2023-05-14T02:17:30.548Z,1.60
2023-05-14T02:19:57.070Z,1.60
2023-05-14T02:22:23.521Z,1.70
2023-05-14T02:24:51.308Z,1.60
2023-05-14T02:27:18.205Z,1.70
2023-05-14T02:29:44.880Z,1.87
2023-05-14T02:32:11.404Z,1.80
2023-05-14T02:34:38.638Z,2.00
2023-05-14T02:37:05.260Z,1.40
2023-05-14T02:39:31.925Z,1.50
2023-05-14T02:41:58.354Z,1.90
2023-05-14T02:44:24.839Z,1.70
2023-05-14T02:46:51.522Z,1.80
2023-05-14T02:49:18.056Z,1.70
2023-05-14T02:51:44.571Z,1.57
2023-05-14T02:54:11.162Z,1.60
2023-05-14T02:56:37.620Z,2.00
2023-05-14T02:59:04.400Z,1.80
2023-05-14T03:01:31.373Z,1.87
2023-05-14T03:03:58.355Z,1.70
2023-05-14T03:06:24.860Z,1.90
2023-05-14T03:08:51.392Z,1.77
2023-05-14T03:11:18.008Z,1.93
2023-05-14T03:13:44.523Z,1.37
2023-05-14T03:16:11.301Z,1.80
2023-05-14T03:18:37.838Z,1.80
2023-05-14T03:21:04.465Z,1.80
2023-05-14T03:23:34.960Z,1.70
2023-05-14T03:26:02.099Z,1.50
2023-05-14T03:28:28.663Z,1.60
2023-05-14T03:30:55.236Z,2.00
2023-05-14T03:33:22.689Z,1.73
2023-05-14T03:35:49.366Z,1.60
2023-05-14T03:38:15.828Z,1.63
2023-05-14T03:40:42.301Z,1.93
2023-05-14T03:43:09.582Z,2.07
2023-05-14T03:45:36.189Z,1.87
2023-05-14T03:48:03.236Z,1.80
2023-05-14T03:50:31.664Z,1.77
2023-05-14T03:52:58.081Z,1.60
2023-05-14T03:55:24.582Z,1.70
2023-05-14T03:57:51.120Z,1.83
2023-05-14T04:00:17.800Z,1.70
2023-05-14T04:02:44.324Z,1.87
2023-05-14T04:05:11.239Z,1.40
2023-05-14T04:07:37.826Z,1.40
2023-05-14T04:10:04.940Z,1.90
2023-05-14T04:12:33.967Z,1.90
2023-05-14T04:15:01.046Z,1.67
2023-05-14T04:17:27.633Z,1.77
2023-05-14T04:19:54.141Z,1.70
2023-05-14T04:22:20.591Z,1.57
2023-05-14T04:24:47.127Z,1.70
2023-05-14T04:27:22.742Z,1.60
2023-05-14T04:29:50.419Z,1.60
2023-05-14T04:32:17.709Z,1.77
2023-05-14T04:34:44.388Z,1.67
2023-05-14T04:37:10.930Z,1.70
2023-05-14T04:39:38.304Z,1.80
2023-05-14T04:42:05.231Z,1.70
2023-05-14T04:44:31.685Z,1.53
2023-05-14T04:46:58.125Z,1.40
2023-05-14T04:49:24.541Z,1.60
2023-05-14T04:51:51.146Z,1.53
2023-05-14T04:54:17.677Z,1.93
2023-05-14T04:56:44.183Z,1.60
2023-05-14T04:59:10.666Z,1.70
2023-05-14T05:01:37.275Z,1.80
2023-05-14T05:04:03.866Z,1.90
2023-05-14T05:06:31.549Z,1.77
2023-05-14T05:08:58.072Z,1.70
2023-05-14T05:11:25.564Z,1.40
2023-05-14T05:13:51.991Z,1.90
2023-05-14T05:16:18.734Z,1.53
2023-05-14T05:18:45.654Z,1.80
2023-05-14T05:21:12.197Z,1.83
2023-05-14T05:23:38.697Z,1.60
2023-05-14T05:26:05.225Z,1.60
2023-05-14T05:28:31.695Z,1.90
2023-05-14T05:30:58.259Z,2.10
2023-05-14T05:33:24.844Z,1.53
2023-05-14T05:35:52.452Z,1.53
2023-05-14T05:38:18.976Z,1.90
2023-05-14T05:40:45.514Z,1.50
2023-05-14T05:43:13.797Z,1.87
2023-05-14T05:45:40.828Z,1.70
2023-05-14T05:48:07.351Z,1.70
2023-05-14T05:50:33.937Z,1.83
2023-05-14T05:53:00.717Z,2.00
2023-05-14T05:55:27.210Z,1.70
2023-05-14T05:57:53.828Z,1.83
2023-05-14T06:00:20.935Z,1.70
2023-05-14T06:02:47.899Z,1.90
2023-05-14T06:05:14.418Z,1.60
2023-05-14T06:07:40.976Z,1.90
2023-05-14T06:10:08.010Z,1.90
2023-05-14T06:12:34.486Z,1.80
2023-05-14T06:15:00.996Z,1.90
2023-05-14T06:17:27.503Z,2.10
2023-05-14T06:19:54.020Z,1.97
2023-05-14T06:22:20.555Z,1.77
2023-05-14T06:24:47.870Z,1.50
2023-05-14T06:27:14.442Z,1.93
2023-05-14T06:29:40.903Z,1.70
2023-05-14T06:32:08.057Z,1.80
2023-05-14T06:34:34.628Z,1.80
2023-05-14T06:37:02.756Z,1.90
2023-05-14T06:39:29.321Z,2.23
2023-05-14T06:41:55.808Z,1.77
2023-05-14T06:44:23.369Z,1.60
2023-05-14T06:46:49.783Z,1.70
2023-05-14T06:49:16.442Z,1.50
2023-05-14T06:51:42.998Z,1.80
2023-05-14T06:54:09.590Z,1.70
2023-05-14T06:56:36.025Z,1.60
2023-05-14T06:59:02.729Z,1.60
2023-05-14T07:01:29.340Z,1.63
2023-05-14T07:03:56.107Z,1.87
2023-05-14T07:06:22.933Z,1.80
2023-05-14T07:08:49.496Z,1.80
2023-05-14T07:11:16.080Z,2.20
2023-05-14T07:13:42.860Z,1.57
2023-05-14T07:16:10.268Z,1.70
2023-05-14T07:18:37.026Z,1.90
2023-05-14T07:21:06.393Z,1.60
2023-05-14T07:23:36.166Z,1.70
2023-05-14T07:26:03.527Z,1.60
2023-05-14T07:28:29.961Z,1.90
2023-05-14T07:30:56.734Z,1.70
2023-05-14T07:33:24.963Z,1.80
2023-05-14T07:35:52.084Z,1.63
2023-05-14T07:38:19.329Z,1.77
2023-05-14T07:40:45.924Z,1.80
2023-05-14T07:43:12.701Z,1.70
2023-05-14T07:45:39.300Z,1.60
2023-05-14T07:48:06.058Z,1.73
2023-05-14T07:50:32.711Z,1.90
2023-05-14T07:52:59.378Z,1.80
2023-05-14T07:55:25.904Z,1.60
2023-05-14T07:57:52.363Z,1.80
2023-05-14T08:00:19.085Z,1.77
2023-05-14T08:02:45.914Z,1.60
2023-05-14T08:05:12.652Z,1.87
2023-05-14T08:07:39.121Z,1.50
2023-05-14T08:10:07.583Z,2.10
2023-05-14T08:12:34.237Z,1.80
2023-05-14T08:15:00.876Z,1.73
2023-05-14T08:17:27.399Z,1.90
2023-05-14T08:19:54.080Z,1.80
2023-05-14T08:22:20.608Z,1.60
2023-05-14T08:24:47.174Z,1.40
2023-05-14T08:27:13.786Z,1.70
2023-05-14T08:29:40.561Z,2.10
2023-05-14T08:32:19.289Z,1.70
2023-05-14T08:34:49.071Z,1.60
2023-05-14T08:37:15.531Z,1.70
2023-05-14T08:39:41.956Z,1.73
2023-05-14T08:42:12.102Z,1.60
2023-05-14T08:44:49.011Z,1.73
2023-05-14T08:47:17.992Z,2.00
2023-05-14T08:49:46.904Z,1.50
2023-05-14T08:52:13.764Z,1.70
2023-05-14T08:54:40.639Z,1.60
2023-05-14T08:57:09.638Z,2.00
2023-05-14T08:59:36.482Z,1.70
2023-05-14T09:02:06.245Z,1.60
2023-05-14T09:04:33.507Z,1.43
2023-05-14T09:07:01.998Z,1.83
2023-05-14T09:09:28.952Z,2.00
2023-05-14T09:11:55.634Z,1.70
2023-05-14T09:14:23.882Z,1.83
2023-05-14T09:16:51.639Z,1.80
2023-05-14T09:19:19.480Z,1.60
2023-05-14T09:21:47.251Z,1.80
2023-05-14T09:24:25.371Z,1.80
2023-05-14T09:26:53.831Z,1.70
2023-05-14T09:29:20.845Z,1.80
2023-05-14T09:31:50.411Z,1.80
2023-05-14T09:34:24.693Z,1.63
2023-05-14T09:36:56.252Z,2.10
2023-05-14T09:39:24.274Z,1.60
2023-05-14T09:41:54.742Z,2.00
2023-05-14T09:44:22.580Z,1.67
2023-05-14T09:46:49.562Z,1.80
2023-05-14T09:49:16.335Z,1.70
2023-05-14T09:51:43.097Z,1.80
2023-05-14T09:54:10.313Z,1.90
2023-05-14T09:56:39.683Z,1.60
2023-05-14T09:59:06.338Z,1.70
2023-05-14T10:01:33.508Z,1.60
2023-05-14T10:04:01.657Z,1.70
2023-05-14T10:06:32.792Z,1.90
2023-05-14T10:09:03.422Z,1.93
2023-05-14T10:11:37.227Z,2.30
2023-05-14T10:14:33.119Z,1.97
2023-05-14T10:17:01.596Z,1.70
2023-05-14T10:19:32.833Z,1.87
2023-05-14T10:22:08.143Z,1.70
2023-05-14T10:24:35.844Z,1.97
2023-05-14T10:27:02.652Z,1.80
2023-05-14T10:29:36.515Z,1.70
2023-05-14T10:32:07.420Z,1.60
2023-05-14T10:34:42.440Z,1.70
2023-05-14T10:37:18.092Z,1.80
2023-05-14T10:39:49.656Z,1.60
2023-05-14T10:42:21.505Z,1.90
2023-05-14T10:44:58.332Z,1.80
2023-05-14T10:47:29.099Z,1.60
2023-05-14T10:49:57.966Z,1.63
2023-05-14T10:52:25.642Z,2.00
2023-05-14T10:54:57.015Z,1.70
2023-05-14T10:57:26.371Z,1.90
2023-05-14T10:59:55.282Z,1.73
2023-05-14T11:02:23.055Z,1.97
2023-05-14T11:05:04.176Z,1.70
2023-05-14T11:07:41.177Z,2.00
2023-05-14T11:10:09.852Z,1.70
2023-05-14T11:12:41.770Z,1.90
2023-05-14T11:15:10.743Z,1.90
2023-05-14T11:17:38.619Z,1.90
2023-05-14T11:20:06.562Z,1.77
2023-05-14T11:22:33.514Z,1.80
2023-05-14T11:25:00.130Z,1.80
2023-05-14T11:27:26.826Z,1.73
2023-05-14T11:29:54.457Z,2.00
2023-05-14T11:32:21.311Z,1.80
2023-05-14T11:34:47.974Z,1.70
2023-05-14T11:37:16.503Z,1.93
2023-05-14T11:39:54.117Z,1.90
2023-05-14T11:42:22.234Z,1.60
2023-05-14T11:44:51.587Z,1.70
2023-05-14T11:47:19.921Z,1.60
2023-05-14T11:49:47.520Z,1.83
2023-05-14T11:52:15.236Z,1.87
2023-05-14T11:54:44.429Z,1.70
2023-05-14T11:57:12.961Z,1.87
2023-05-14T11:59:39.744Z,2.07
2023-05-14T12:02:10.511Z,1.70
2023-05-14T12:04:37.226Z,1.80
2023-05-14T12:07:14.603Z,2.00
2023-05-14T12:09:48.892Z,1.80
2023-05-14T12:12:22.312Z,1.90
2023-05-14T12:14:50.542Z,1.60
2023-05-14T12:17:21.802Z,2.00
2023-05-14T12:19:50.905Z,1.80
2023-05-14T12:22:19.896Z,1.90
2023-05-14T12:24:56.585Z,1.73
2023-05-14T12:27:24.759Z,1.67
2023-05-14T12:30:09.276Z,1.60
2023-05-14T12:32:45.826Z,1.60
2023-05-14T12:35:12.352Z,1.77
2023-05-14T12:37:39.863Z,1.70
2023-05-14T12:40:09.373Z,1.80
2023-05-14T12:42:36.437Z,1.70
2023-05-14T12:45:06.916Z,1.63
2023-05-14T12:47:33.565Z,2.10
2023-05-14T12:50:00.082Z,1.80
2023-05-14T12:52:37.354Z,1.70
2023-05-14T12:55:09.505Z,2.00
2023-05-14T12:57:37.166Z,1.67
2023-05-14T13:00:07.808Z,1.53
2023-05-14T13:02:42.627Z,1.90
2023-05-14T13:05:13.497Z,1.70
2023-05-14T13:07:40.326Z,1.93
2023-05-14T13:10:07.373Z,1.80
2023-05-14T13:12:34.116Z,1.50
2023-05-14T13:15:00.886Z,2.10
2023-05-14T13:17:27.448Z,1.90
2023-05-14T13:19:53.962Z,1.90
2023-05-14T13:22:20.485Z,1.80
2023-05-14T13:24:46.957Z,1.73
2023-05-14T13:27:13.420Z,1.70
2023-05-14T13:29:39.920Z,2.10
2023-05-14T13:32:06.775Z,1.53
2023-05-14T13:34:33.455Z,1.80
2023-05-14T13:36:59.891Z,1.77
2023-05-14T13:39:27.222Z,1.80
2023-05-14T13:41:57.022Z,2.00
2023-05-14T13:44:24.043Z,1.70
2023-05-14T13:46:50.759Z,1.70
2023-05-14T13:49:17.514Z,2.00
2023-05-14T13:51:44.337Z,1.67
2023-05-14T13:54:10.943Z,1.90
2023-05-14T13:56:37.469Z,1.83
2023-05-14T13:59:04.154Z,1.90
2023-05-14T14:01:31.041Z,1.77
2023-05-14T14:03:57.772Z,1.70
2023-05-14T14:06:27.152Z,1.70
2023-05-14T14:08:53.673Z,1.70
2023-05-14T14:11:20.621Z,1.60
2023-05-14T14:13:47.075Z,2.00
2023-05-14T14:16:13.596Z,1.80
2023-05-14T14:18:40.262Z,1.87
2023-05-14T14:21:06.738Z,1.60
2023-05-14T14:23:33.231Z,2.10
2023-05-14T14:26:00.688Z,1.77
2023-05-14T14:28:27.166Z,2.00
2023-05-14T14:30:53.884Z,1.90
2023-05-14T14:33:20.421Z,1.70
2023-05-14T14:35:46.926Z,1.60
2023-05-14T14:38:13.697Z,1.60
2023-05-14T14:40:40.316Z,1.63
2023-05-14T14:43:06.934Z,1.80
2023-05-14T14:45:33.400Z,1.47
2023-05-14T14:48:31.370Z,1.90
2023-05-14T14:50:58.193Z,1.67
2023-05-14T14:53:24.955Z,1.77
2023-05-14T14:55:52.123Z,1.60
2023-05-14T14:58:19.713Z,2.17
2023-05-14T15:00:46.987Z,1.80
2023-05-14T15:03:15.011Z,1.80
2023-05-14T15:05:41.808Z,1.90
2023-05-14T15:08:08.262Z,1.60
2023-05-14T15:10:37.802Z,1.80
2023-05-14T15:13:05.735Z,1.80
2023-05-14T15:15:36.074Z,1.70
2023-05-14T15:18:04.423Z,2.10
2023-05-14T15:20:30.917Z,1.97
2023-05-14T15:22:57.446Z,2.00
2023-05-14T15:25:24.718Z,1.87
2023-05-14T15:27:51.518Z,1.67
2023-05-14T15:30:18.100Z,2.00
2023-05-14T15:32:45.811Z,2.00
2023-05-14T15:35:12.415Z,2.00
2023-05-14T15:37:44.301Z,1.80
2023-05-14T15:40:11.637Z,2.20
2023-05-14T15:42:40.082Z,2.23
2023-05-14T15:45:07.061Z,1.87
2023-05-14T15:47:33.825Z,1.90
2023-05-14T15:50:01.103Z,1.90
2023-05-14T15:52:27.585Z,1.87
2023-05-14T15:54:55.964Z,1.83
2023-05-14T15:57:22.547Z,1.83
2023-05-14T15:59:49.191Z,2.00
2023-05-14T16:02:15.940Z,1.80
2023-05-14T16:04:42.579Z,2.13
2023-05-14T16:07:12.165Z,1.97
2023-05-14T16:09:39.003Z,1.90
2023-05-14T16:12:06.444Z,2.20
2023-05-14T16:14:36.290Z,2.00
2023-05-14T16:17:02.837Z,1.67
2023-05-14T16:19:29.415Z,1.77
2023-05-14T16:21:55.950Z,2.27
2023-05-14T16:24:22.501Z,1.97
2023-05-14T16:26:48.998Z,1.70
2023-05-14T16:29:15.786Z,1.70
2023-05-14T16:31:42.288Z,1.83
2023-05-14T16:34:08.761Z,1.80
2023-05-14T16:36:35.358Z,1.90
2023-05-14T16:41:31.324Z,1.97
2023-05-14T16:43:57.749Z,2.00
2023-05-14T16:46:24.350Z,1.93
2023-05-14T16:48:50.798Z,2.00
2023-05-14T16:51:17.239Z,1.87
2023-05-14T16:53:43.720Z,1.83
2023-05-14T16:56:11.029Z,2.03
2023-05-14T16:58:37.696Z,1.80
2023-05-14T17:01:04.261Z,2.03
2023-05-14T17:03:30.717Z,2.07
2023-05-14T17:05:57.191Z,1.80
2023-05-14T17:08:23.733Z,1.60
2023-05-14T17:10:50.244Z,2.23
2023-05-14T17:13:16.714Z,1.60
2023-05-14T17:15:43.293Z,1.70
2023-05-14T17:18:11.837Z,1.60
2023-05-14T17:20:38.402Z,1.50
2023-05-14T17:23:04.834Z,1.80
2023-05-14T17:25:33.093Z,1.80
2023-05-14T17:27:59.982Z,1.53
2023-05-14T17:30:26.572Z,1.50
2023-05-14T17:32:53.039Z,1.73
2023-05-14T17:35:19.640Z,1.80
2023-05-14T17:37:46.535Z,1.73
2023-05-14T17:40:13.250Z,2.07
2023-05-14T17:42:39.777Z,1.60
2023-05-14T17:45:06.963Z,1.97
2023-05-14T17:47:33.438Z,1.90
2023-05-14T17:49:59.984Z,1.83
2023-05-14T17:52:26.445Z,1.60
2023-05-14T17:54:52.901Z,1.57
2023-05-14T17:57:19.321Z,1.93
2023-05-14T17:59:45.940Z,1.83
2023-05-14T18:02:12.352Z,1.83
2023-05-14T18:04:38.816Z,2.10
2023-05-14T18:07:05.572Z,1.67
2023-05-14T18:09:32.255Z,1.70
2023-05-14T18:11:58.674Z,1.93
2023-05-14T18:14:25.147Z,1.83
2023-05-14T18:16:51.831Z,1.80
2023-05-14T18:19:18.332Z,1.80
2023-05-14T18:21:47.943Z,1.90
2023-05-14T18:24:14.480Z,2.40
2023-05-14T18:26:40.921Z,1.80
2023-05-14T18:29:07.384Z,2.40
2023-05-14T18:31:33.955Z,2.00
2023-05-14T18:34:00.652Z,2.43
2023-05-14T18:36:27.105Z,2.00
2023-05-14T18:38:53.594Z,2.37
2023-05-14T18:41:20.073Z,2.07
2023-05-14T18:43:46.666Z,2.40
2023-05-14T18:46:13.647Z,2.37
2023-05-14T18:48:40.283Z,2.10
2023-05-14T18:51:07.053Z,2.00
2023-05-14T18:53:33.698Z,2.43
2023-05-14T18:56:00.404Z,2.20
2023-05-14T18:58:26.906Z,1.83
2023-05-14T19:00:53.398Z,2.07
2023-05-14T19:03:20.271Z,2.00
2023-05-14T19:05:47.044Z,2.10
2023-05-14T19:08:13.545Z,2.63
2023-05-14T19:10:39.948Z,2.40
2023-05-14T19:13:06.452Z,2.30
2023-05-14T19:15:32.982Z,2.37
2023-05-14T19:18:00.291Z,5.37
2023-05-14T19:20:27.212Z,9.27
2023-05-14T19:22:53.681Z,19.70
2023-05-14T19:25:20.190Z,26.13
2023-05-14T19:27:50.831Z,23.63
2023-05-14T19:30:17.763Z,21.10
2023-05-14T19:32:44.279Z,20.67
2023-05-14T19:35:11.540Z,19.90
2023-05-14T19:37:38.047Z,19.87
2023-05-14T19:40:06.112Z,19.17
2023-05-14T19:42:32.635Z,17.03
2023-05-14T19:44:59.193Z,17.90
2023-05-14T19:47:25.783Z,15.00
2023-05-14T19:49:52.286Z,15.47
2023-05-14T19:52:18.753Z,15.23
2023-05-14T19:54:45.201Z,13.87
2023-05-14T19:57:11.767Z,14.70
2023-05-14T19:59:39.249Z,14.00
2023-05-14T20:02:05.892Z,13.90
2023-05-14T20:04:33.180Z,12.97
2023-05-14T20:06:59.629Z,13.40
2023-05-14T20:09:26.099Z,13.10
2023-05-14T20:11:52.568Z,13.07
2023-05-14T20:14:19.037Z,12.73
2023-05-14T20:16:46.974Z,12.83
2023-05-14T20:19:14.172Z,11.30
2023-05-14T20:21:40.660Z,12.10
2023-05-14T20:24:07.196Z,11.20
2023-05-14T20:26:33.876Z,11.63
2023-05-14T20:29:00.543Z,11.20
2023-05-14T20:31:27.049Z,10.33
2023-05-14T20:33:53.601Z,10.13
2023-05-14T20:36:20.099Z,10.13
2023-05-14T20:38:47.694Z,9.87
2023-05-14T20:41:14.993Z,9.87
2023-05-14T20:43:41.434Z,10.30
2023-05-14T20:46:08.917Z,10.07
2023-05-14T20:48:35.415Z,9.63
2023-05-14T20:51:04.722Z,9.57
2023-05-14T20:53:31.535Z,9.70
2023-05-14T20:55:58.919Z,10.10
2023-05-14T20:58:25.462Z,9.37
2023-05-14T21:00:51.942Z,9.27
2023-05-14T21:03:18.557Z,9.57
2023-05-14T21:05:45.103Z,9.53
2023-05-14T21:08:11.587Z,9.33
2023-05-14T21:10:38.074Z,9.13
2023-05-14T21:13:04.654Z,9.60
2023-05-14T21:15:31.252Z,9.67
2023-05-14T21:17:57.782Z,9.47
2023-05-14T21:20:24.251Z,9.33
2023-05-14T21:22:50.709Z,9.57
2023-05-14T21:25:17.285Z,9.33
2023-05-14T21:27:43.746Z,9.30
2023-05-14T21:30:10.845Z,9.40
2023-05-14T21:32:37.379Z,10.13
2023-05-14T21:35:05.086Z,9.43
2023-05-14T21:37:31.571Z,9.53
2023-05-14T21:39:58.006Z,9.20
2023-05-14T21:42:24.514Z,9.27
2023-05-14T21:44:50.989Z,9.20
2023-05-14T21:47:17.676Z,9.20
2023-05-14T21:49:44.228Z,9.53
2023-05-14T21:52:10.783Z,8.97
2023-05-14T21:54:37.205Z,9.77
2023-05-14T21:57:03.912Z,10.03
2023-05-14T21:59:30.385Z,9.13
2023-05-14T22:02:06.985Z,8.63
2023-05-14T22:04:35.110Z,8.53
2023-05-14T22:07:01.915Z,8.57
2023-05-14T22:09:28.772Z,9.47
2023-05-14T22:11:55.259Z,8.87
2023-05-14T22:14:21.697Z,9.20
2023-05-14T22:16:48.383Z,9.43
2023-05-14T22:19:16.434Z,9.07
2023-05-14T22:21:43.138Z,8.63
2023-05-14T22:24:09.559Z,9.60
2023-05-14T22:26:36.092Z,8.60
2023-05-14T22:29:02.522Z,9.30
2023-05-14T22:31:29.513Z,8.97
2023-05-14T22:33:55.996Z,8.10
2023-05-14T22:36:22.449Z,7.93
2023-05-14T22:38:48.896Z,9.30
2023-05-14T22:41:17.385Z,8.47
2023-05-14T22:43:43.876Z,8.07
2023-05-14T22:46:10.752Z,8.87
2023-05-14T22:48:37.190Z,8.97
2023-05-14T22:51:03.781Z,9.10
2023-05-14T22:53:30.256Z,8.50
2023-05-14T22:55:56.956Z,8.93
2023-05-14T22:58:23.455Z,8.10
2023-05-14T23:00:50.055Z,8.00
2023-05-14T23:03:16.513Z,8.83
2023-05-14T23:05:43.031Z,7.63
2023-05-14T23:08:10.449Z,7.97
2023-05-14T23:10:36.938Z,8.13
2023-05-14T23:13:03.733Z,8.03
2023-05-14T23:15:30.504Z,8.30
2023-05-14T23:17:57.092Z,8.03
2023-05-14T23:20:23.725Z,8.40
2023-05-14T23:22:50.235Z,8.73
2023-05-14T23:25:16.719Z,8.33
2023-05-14T23:27:43.198Z,7.50
2023-05-14T23:30:10.297Z,7.63
2023-05-14T23:32:36.818Z,7.33
2023-05-14T23:35:03.645Z,7.27
2023-05-14T23:37:30.492Z,7.73
2023-05-14T23:39:57.111Z,7.70
2023-05-14T23:42:24.648Z,6.83
2023-05-14T23:44:51.141Z,6.90
2023-05-14T23:47:17.707Z,7.13
2023-05-14T23:49:44.246Z,8.00
2023-05-14T23:52:11.260Z,7.10
2023-05-14T23:54:38.849Z,7.67
2023-05-14T23:57:05.638Z,6.87
2023-05-14T23:59:32.139Z,6.87
